createdAt,value
2023-01-18T00:00:26.833Z,48.18
2023-01-18T00:01:26.794Z,48.21
2023-01-18T00:02:26.775Z,46.04
2023-01-18T00:03:26.790Z,54.51
2023-01-18T00:04:26.760Z,49.13
2023-01-18T00:05:26.752Z,61.96
2023-01-18T00:06:26.751Z,57.89
2023-01-18T00:07:26.740Z,49.35
2023-01-18T00:08:26.757Z,48.15
2023-01-18T00:09:26.725Z,53.33
2023-01-18T00:10:26.719Z,44.13
2023-01-18T00:11:26.711Z,46.67
2023-01-18T00:12:26.700Z,44.14
2023-01-18T00:13:26.725Z,46.05
2023-01-18T00:14:26.689Z,54.51
2023-01-18T00:15:26.680Z,45.85
2023-01-18T00:16:26.757Z,54.56
2023-01-18T00:17:26.665Z,44.16
2023-01-18T00:18:26.681Z,51.49
2023-01-18T00:19:26.650Z,61.73
2023-01-18T00:20:26.645Z,53.79
2023-01-18T00:21:26.651Z,52.97
2023-01-18T00:22:26.628Z,58.97
2023-01-18T00:23:26.651Z,55.57
2023-01-18T00:24:26.616Z,53.49
2023-01-18T00:25:26.607Z,45.88
2023-01-18T00:26:26.609Z,50.81
2023-01-18T00:27:26.587Z,54.32
2023-01-18T00:28:26.610Z,47.99
2023-01-18T00:29:26.577Z,56.30
2023-01-18T00:30:26.653Z,49.36
2023-01-18T00:31:26.633Z,48.17
2023-01-18T00:32:26.558Z,43.75
2023-01-18T00:33:26.567Z,51.11
2023-01-18T00:34:26.536Z,50.77
2023-01-18T00:35:26.539Z,41.35
2023-01-18T00:36:26.520Z,41.23
2023-01-18T00:37:26.519Z,53.54
2023-01-18T00:38:26.532Z,50.75
2023-01-18T00:39:26.498Z,51.76
2023-01-18T00:40:26.490Z,43.06
2023-01-18T00:41:26.489Z,41.93
2023-01-18T00:42:26.476Z,47.88
2023-01-18T00:43:26.497Z,44.67
2023-01-18T00:44:26.463Z,48.17
2023-01-18T00:45:26.501Z,54.28
2023-01-18T00:46:26.449Z,50.40
2023-01-18T00:47:26.440Z,45.40
2023-01-18T00:48:26.461Z,53.79
2023-01-18T00:49:26.436Z,46.19
2023-01-18T00:50:26.438Z,42.18
2023-01-18T00:51:26.416Z,43.11
2023-01-18T00:52:26.402Z,47.63
2023-01-18T00:53:26.427Z,50.11
2023-01-18T00:54:26.388Z,52.17
2023-01-18T00:55:26.380Z,52.59
2023-01-18T00:56:26.374Z,48.96
2023-01-18T00:57:26.364Z,54.12
2023-01-18T00:58:26.386Z,45.64
2023-01-18T00:59:27.350Z,50.98
2023-01-18T01:00:26.351Z,51.64
2023-01-18T01:01:26.420Z,46.87
2023-01-18T01:02:26.350Z,42.51
2023-01-18T01:03:26.351Z,53.21
2023-01-18T01:04:27.319Z,53.20
2023-01-18T01:05:26.309Z,59.29
2023-01-18T01:06:26.303Z,54.71
2023-01-18T01:07:26.306Z,60.39
2023-01-18T01:08:26.289Z,58.08
2023-01-18T01:09:26.327Z,59.88
2023-01-18T01:10:26.269Z,49.10
2023-01-18T01:11:26.272Z,45.70
2023-01-18T01:12:26.262Z,46.35
2023-01-18T01:13:26.248Z,52.26
2023-01-18T01:14:26.269Z,53.48
2023-01-18T01:15:26.241Z,64.48
2023-01-18T01:16:26.240Z,48.28
2023-01-18T01:17:26.218Z,50.92
2023-01-18T01:18:26.214Z,47.13
2023-01-18T01:19:26.237Z,58.40
2023-01-18T01:20:26.206Z,52.90
2023-01-18T01:21:26.187Z,54.15
2023-01-18T01:22:26.186Z,49.21
2023-01-18T01:23:26.176Z,55.65
2023-01-18T01:24:26.194Z,52.11
2023-01-18T01:25:26.174Z,50.01
2023-01-18T01:26:26.152Z,44.80
2023-01-18T01:27:26.155Z,45.31
2023-01-18T01:28:26.143Z,54.18
2023-01-18T01:29:26.157Z,51.05
2023-01-18T01:30:26.180Z,53.19
2023-01-18T01:31:26.122Z,56.23
2023-01-18T01:32:26.124Z,51.81
2023-01-18T01:33:26.100Z,47.58
2023-01-18T01:34:26.121Z,45.53
2023-01-18T01:35:26.100Z,47.23
2023-01-18T01:36:26.097Z,55.62
2023-01-18T01:37:26.071Z,59.88
2023-01-18T01:38:26.069Z,57.43
2023-01-18T01:39:26.102Z,52.69
2023-01-18T01:40:26.046Z,55.93
2023-01-18T01:41:26.038Z,62.43
2023-01-18T01:42:26.029Z,46.69
2023-01-18T01:43:26.029Z,50.56
2023-01-18T01:44:26.046Z,53.40
2023-01-18T01:45:26.011Z,62.55
2023-01-18T01:46:26.006Z,56.40
2023-01-18T01:47:25.999Z,53.22
2023-01-18T01:48:25.989Z,46.12
2023-01-18T01:49:26.002Z,51.86
2023-01-18T01:50:25.989Z,56.38
2023-01-18T01:51:25.970Z,59.93
2023-01-18T01:52:26.024Z,55.08
2023-01-18T01:53:25.955Z,63.80
2023-01-18T01:54:25.973Z,62.17
2023-01-18T01:55:25.937Z,57.07
2023-01-18T01:56:25.932Z,48.81
2023-01-18T01:57:25.922Z,44.90
2023-01-18T01:58:25.912Z,44.58
2023-01-18T01:59:25.929Z,49.46
2023-01-18T02:00:25.917Z,52.92
2023-01-18T02:01:25.963Z,62.17
2023-01-18T02:02:25.982Z,59.05
2023-01-18T02:03:25.877Z,55.15
2023-01-18T02:04:25.898Z,65.94
2023-01-18T02:05:25.861Z,60.18
2023-01-18T02:06:25.854Z,60.63
2023-01-18T02:07:25.847Z,54.00
2023-01-18T02:08:25.850Z,57.03
2023-01-18T02:09:25.855Z,54.91
2023-01-18T02:10:25.830Z,57.75
2023-01-18T02:11:25.884Z,54.30
2023-01-18T02:12:25.813Z,56.56
2023-01-18T02:13:25.807Z,50.17
2023-01-18T02:14:25.828Z,56.30
2023-01-18T02:15:25.791Z,48.14
2023-01-18T02:16:25.803Z,52.66
2023-01-18T02:17:25.776Z,56.08
2023-01-18T02:18:25.772Z,49.37
2023-01-18T02:19:25.792Z,45.67
2023-01-18T02:20:25.754Z,60.53
2023-01-18T02:21:25.747Z,50.52
2023-01-18T02:22:25.744Z,54.75
2023-01-18T02:23:25.732Z,56.53
2023-01-18T02:24:25.753Z,50.44
2023-01-18T02:25:25.725Z,59.87
2023-01-18T02:26:25.705Z,60.24
2023-01-18T02:27:25.765Z,56.43
2023-01-18T02:28:25.696Z,54.53
2023-01-18T02:29:25.708Z,65.32
2023-01-18T02:30:25.681Z,58.07
2023-01-18T02:31:25.671Z,60.39
2023-01-18T02:32:25.660Z,58.15
2023-01-18T02:33:25.653Z,62.49
2023-01-18T02:34:25.690Z,53.99
2023-01-18T02:35:25.648Z,52.78
2023-01-18T02:36:25.634Z,53.56
2023-01-18T02:37:25.631Z,63.63
2023-01-18T02:38:25.614Z,56.81
2023-01-18T02:39:25.636Z,48.74
2023-01-18T02:40:25.598Z,56.23
2023-01-18T02:41:25.604Z,50.88
2023-01-18T02:42:25.588Z,47.51
2023-01-18T02:43:25.583Z,55.17
2023-01-18T02:44:25.573Z,53.91
2023-01-18T02:45:25.587Z,48.16
2023-01-18T02:46:25.611Z,56.27
2023-01-18T02:47:25.552Z,64.48
2023-01-18T02:48:25.535Z,57.62
2023-01-18T02:49:26.537Z,54.28
2023-01-18T02:50:25.547Z,48.78
2023-01-18T02:51:26.519Z,58.19
2023-01-18T02:52:25.510Z,59.02
2023-01-18T02:53:25.517Z,63.05
2023-01-18T02:54:25.496Z,51.27
2023-01-18T02:55:25.510Z,48.61
2023-01-18T02:56:25.485Z,53.15
2023-01-18T02:57:25.474Z,58.36
2023-01-18T02:58:25.478Z,52.83
2023-01-18T02:59:25.461Z,59.48
2023-01-18T03:00:25.482Z,64.47
2023-01-18T03:01:25.497Z,55.67
2023-01-18T03:02:25.477Z,52.00
2023-01-18T03:03:25.428Z,64.12
2023-01-18T03:04:25.431Z,63.77
2023-01-18T03:05:25.437Z,54.04
2023-01-18T03:06:25.402Z,48.78
2023-01-18T03:07:25.399Z,51.56
2023-01-18T03:08:25.409Z,68.17
2023-01-18T03:09:25.391Z,61.11
2023-01-18T03:10:25.399Z,55.61
2023-01-18T03:11:25.366Z,60.29
2023-01-18T03:12:25.369Z,56.05
2023-01-18T03:13:25.365Z,58.60
2023-01-18T03:14:25.345Z,57.91
2023-01-18T03:15:25.372Z,53.43
2023-01-18T03:16:25.329Z,60.85
2023-01-18T03:17:25.334Z,57.54
2023-01-18T03:18:25.316Z,55.33
2023-01-18T03:19:25.309Z,59.66
2023-01-18T03:20:25.573Z,58.32
2023-01-18T03:21:26.310Z,52.19
2023-01-18T03:22:25.291Z,61.25
2023-01-18T03:23:25.284Z,64.33
2023-01-18T03:24:25.264Z,49.39
2023-01-18T03:25:25.303Z,49.68
2023-01-18T03:26:25.281Z,62.20
2023-01-18T03:27:25.247Z,57.93
2023-01-18T03:28:25.235Z,55.38
2023-01-18T03:29:25.233Z,60.93
2023-01-18T03:30:25.265Z,56.28
2023-01-18T03:31:25.219Z,58.77
2023-01-18T03:32:25.224Z,55.34
2023-01-18T03:33:25.204Z,56.20
2023-01-18T03:34:25.196Z,59.36
2023-01-18T03:35:25.227Z,56.17
2023-01-18T03:36:25.175Z,61.38
2023-01-18T03:37:25.181Z,65.21
2023-01-18T03:38:25.164Z,63.04
2023-01-18T03:39:25.162Z,55.72
2023-01-18T03:40:25.167Z,59.54
2023-01-18T03:41:25.167Z,52.27
2023-01-18T03:42:25.138Z,55.82
2023-01-18T03:43:25.131Z,59.92
2023-01-18T03:44:25.121Z,55.68
2023-01-18T03:45:25.123Z,62.04
2023-01-18T03:46:25.178Z,66.33
2023-01-18T03:47:25.102Z,58.20
2023-01-18T03:48:25.095Z,61.82
2023-01-18T03:49:25.083Z,61.99
2023-01-18T03:50:25.081Z,55.83
2023-01-18T03:51:25.095Z,62.60
2023-01-18T03:52:25.078Z,57.52
2023-01-18T03:53:25.062Z,56.03
2023-01-18T03:54:25.052Z,54.80
2023-01-18T03:55:25.047Z,56.39
2023-01-18T03:56:25.067Z,56.55
2023-01-18T03:57:25.026Z,55.44
2023-01-18T03:58:25.019Z,60.81
2023-01-18T03:59:26.011Z,52.39
2023-01-18T04:00:25.017Z,55.22
2023-01-18T04:01:25.088Z,58.58
2023-01-18T04:02:25.060Z,59.67
2023-01-18T04:03:24.980Z,56.30
2023-01-18T04:04:24.988Z,61.77
2023-01-18T04:05:24.973Z,70.26
2023-01-18T04:06:24.990Z,62.22
2023-01-18T04:07:24.955Z,58.13
2023-01-18T04:08:24.948Z,62.55
2023-01-18T04:09:24.940Z,58.01
2023-01-18T04:10:25.934Z,54.56
2023-01-18T04:11:24.952Z,61.39
2023-01-18T04:12:24.922Z,58.58
2023-01-18T04:13:24.918Z,58.66
2023-01-18T04:14:24.905Z,58.57
2023-01-18T04:15:24.896Z,55.88
2023-01-18T04:16:24.919Z,59.11
2023-01-18T04:17:24.888Z,61.13
2023-01-18T04:18:24.881Z,66.63
2023-01-18T04:19:24.877Z,62.08
2023-01-18T04:20:24.864Z,61.17
2023-01-18T04:21:24.879Z,66.68
2023-01-18T04:22:24.851Z,65.37
2023-01-18T04:23:24.839Z,60.14
2023-01-18T04:24:24.828Z,62.11
2023-01-18T04:25:25.824Z,60.38
2023-01-18T04:26:24.844Z,63.55
2023-01-18T04:27:24.803Z,60.81
2023-01-18T04:28:24.801Z,64.19
2023-01-18T04:29:24.794Z,58.69
2023-01-18T04:30:24.782Z,61.75
2023-01-18T04:31:24.863Z,63.92
2023-01-18T04:32:24.767Z,67.68
2023-01-18T04:33:24.762Z,63.77
2023-01-18T04:34:24.753Z,58.84
2023-01-18T04:35:24.749Z,65.43
2023-01-18T04:36:24.766Z,64.28
2023-01-18T04:37:24.735Z,63.19
2023-01-18T04:38:24.729Z,64.04
2023-01-18T04:39:24.726Z,64.52
2023-01-18T04:40:24.709Z,63.61
2023-01-18T04:41:24.729Z,62.37
2023-01-18T04:42:24.698Z,59.58
2023-01-18T04:43:24.696Z,64.21
2023-01-18T04:44:24.688Z,66.98
2023-01-18T04:45:24.687Z,64.11
2023-01-18T04:46:24.753Z,65.84
2023-01-18T04:47:24.662Z,62.08
2023-01-18T04:48:24.657Z,58.96
2023-01-18T04:49:24.679Z,63.78
2023-01-18T04:50:24.643Z,61.55
2023-01-18T04:51:24.684Z,60.81
2023-01-18T04:52:24.631Z,66.77
2023-01-18T04:53:24.621Z,60.06
2023-01-18T04:54:24.624Z,63.95
2023-01-18T04:55:24.606Z,61.83
2023-01-18T04:56:24.672Z,61.39
2023-01-18T04:57:24.587Z,61.18
2023-01-18T04:58:24.610Z,60.49
2023-01-18T04:59:24.588Z,66.57
2023-01-18T05:00:24.587Z,58.79
2023-01-18T05:01:24.717Z,59.41
2023-01-18T05:02:24.581Z,61.42
2023-01-18T05:03:24.565Z,62.56
2023-01-18T05:04:24.550Z,60.53
2023-01-18T05:05:26.343Z,57.45
2023-01-18T05:06:24.576Z,60.34
2023-01-18T05:07:24.523Z,63.78
2023-01-18T05:08:24.526Z,62.14
2023-01-18T05:09:24.507Z,67.29
2023-01-18T05:10:24.504Z,62.72
2023-01-18T05:11:24.537Z,63.02
2023-01-18T05:12:24.516Z,61.56
2023-01-18T05:13:24.478Z,64.59
2023-01-18T05:14:24.481Z,63.20
2023-01-18T05:15:24.477Z,67.03
2023-01-18T05:16:24.550Z,65.01
2023-01-18T05:17:24.460Z,66.34
2023-01-18T05:18:24.452Z,61.88
2023-01-18T05:19:24.437Z,64.84
2023-01-18T05:20:24.434Z,62.87
2023-01-18T05:21:24.433Z,63.34
2023-01-18T05:22:24.439Z,62.36
2023-01-18T05:23:24.413Z,62.54
2023-01-18T05:24:24.421Z,61.69
2023-01-18T05:25:24.395Z,62.57
2023-01-18T05:26:24.414Z,60.48
2023-01-18T05:27:24.411Z,63.89
2023-01-18T05:28:24.379Z,64.20
2023-01-18T05:29:24.364Z,64.96
2023-01-18T05:30:24.375Z,62.79
2023-01-18T05:31:24.358Z,60.71
2023-01-18T05:32:24.366Z,62.64
2023-01-18T05:33:24.363Z,64.86
2023-01-18T05:34:24.321Z,59.19
2023-01-18T05:35:24.332Z,62.47
2023-01-18T05:36:24.309Z,67.47
2023-01-18T05:37:24.327Z,65.08
2023-01-18T05:38:24.324Z,63.83
2023-01-18T05:39:24.286Z,64.48
2023-01-18T05:40:24.291Z,64.77
2023-01-18T05:41:24.287Z,66.82
2023-01-18T05:42:24.295Z,66.00
2023-01-18T05:43:24.269Z,63.75
2023-01-18T05:44:24.254Z,66.38
2023-01-18T05:45:24.246Z,65.70
2023-01-18T05:46:24.246Z,66.80
2023-01-18T05:47:24.262Z,65.21
2023-01-18T05:48:24.223Z,68.46
2023-01-18T05:49:24.253Z,64.07
2023-01-18T05:50:24.212Z,62.37
2023-01-18T05:51:24.203Z,65.91
2023-01-18T05:52:24.223Z,65.31
2023-01-18T05:53:24.189Z,62.95
2023-01-18T05:54:24.206Z,65.08
2023-01-18T05:55:24.182Z,65.98
2023-01-18T05:56:24.166Z,66.08
2023-01-18T05:57:24.183Z,62.86
2023-01-18T05:58:24.152Z,66.10
2023-01-18T05:59:24.187Z,63.74
2023-01-18T06:00:24.137Z,66.03
2023-01-18T06:01:24.181Z,63.72
2023-01-18T06:02:24.154Z,65.16
2023-01-18T06:03:24.113Z,65.21
2023-01-18T06:04:24.157Z,70.04
2023-01-18T06:05:24.104Z,65.77
2023-01-18T06:06:24.099Z,65.79
2023-01-18T06:07:24.111Z,63.50
2023-01-18T06:08:24.097Z,64.95
2023-01-18T06:09:24.072Z,67.37
2023-01-18T06:10:24.079Z,67.37
2023-01-18T06:11:24.065Z,65.31
2023-01-18T06:12:24.098Z,66.81
2023-01-18T06:13:24.053Z,66.81
2023-01-18T06:14:24.041Z,68.14
2023-01-18T06:15:24.032Z,65.76
2023-01-18T06:16:24.063Z,65.33
2023-01-18T06:17:24.036Z,65.92
2023-01-18T06:18:24.034Z,65.62
2023-01-18T06:19:24.024Z,67.37
2023-01-18T06:20:24.016Z,67.83
2023-01-18T06:21:24.020Z,65.15
2023-01-18T06:22:23.984Z,68.03
2023-01-18T06:23:24.026Z,69.46
2023-01-18T06:24:23.968Z,64.21
2023-01-18T06:25:23.958Z,65.39
2023-01-18T06:26:23.984Z,63.26
2023-01-18T06:27:23.951Z,62.53
2023-01-18T06:28:23.974Z,63.89
2023-01-18T06:29:23.938Z,64.38
2023-01-18T06:30:23.925Z,65.86
2023-01-18T06:31:24.036Z,65.49
2023-01-18T06:32:23.907Z,64.82
2023-01-18T06:33:23.927Z,63.58
2023-01-18T06:34:23.895Z,66.44
2023-01-18T06:35:23.903Z,65.34
2023-01-18T06:36:23.881Z,65.12
2023-01-18T06:37:23.874Z,65.08
2023-01-18T06:38:23.903Z,62.83
2023-01-18T06:39:23.857Z,64.75
2023-01-18T06:40:23.865Z,62.97
2023-01-18T06:41:23.863Z,64.79
2023-01-18T06:42:23.834Z,65.37
2023-01-18T06:43:23.854Z,66.12
2023-01-18T06:44:23.831Z,63.27
2023-01-18T06:45:23.817Z,64.13
2023-01-18T06:46:23.812Z,65.35
2023-01-18T06:47:23.803Z,61.48
2023-01-18T06:48:23.819Z,64.38
2023-01-18T06:49:23.797Z,63.93
2023-01-18T06:50:23.773Z,63.53
2023-01-18T06:51:23.765Z,66.05
2023-01-18T06:52:23.766Z,65.66
2023-01-18T06:53:23.776Z,64.95
2023-01-18T06:54:23.751Z,65.68
2023-01-18T06:55:23.736Z,61.24
2023-01-18T06:56:23.732Z,68.29
2023-01-18T06:57:23.729Z,67.30
2023-01-18T06:58:23.739Z,67.30
2023-01-18T06:59:23.704Z,62.87
2023-01-18T07:00:23.700Z,67.02
2023-01-18T07:01:23.837Z,66.19
2023-01-18T07:02:23.701Z,63.97
2023-01-18T07:03:23.711Z,62.84
2023-01-18T07:04:23.725Z,64.90
2023-01-18T07:05:23.661Z,61.80
2023-01-18T07:06:23.663Z,64.83
2023-01-18T07:07:23.654Z,62.29
2023-01-18T07:08:23.681Z,65.00
2023-01-18T07:09:23.637Z,62.80
2023-01-18T07:10:23.634Z,62.14
2023-01-18T07:11:23.625Z,61.53
2023-01-18T07:12:23.611Z,62.88
2023-01-18T07:13:25.267Z,62.69
2023-01-18T07:14:23.608Z,63.85
2023-01-18T07:15:23.606Z,60.69
2023-01-18T07:16:23.618Z,63.95
2023-01-18T07:17:23.585Z,62.48
2023-01-18T07:18:23.577Z,63.74
2023-01-18T07:19:23.599Z,63.69
2023-01-18T07:20:23.561Z,65.16
2023-01-18T07:21:23.548Z,65.79
2023-01-18T07:22:23.547Z,63.87
2023-01-18T07:23:23.534Z,64.09
2023-01-18T07:24:23.555Z,66.50
2023-01-18T07:25:23.524Z,62.36
2023-01-18T07:26:23.512Z,65.32
2023-01-18T07:27:23.515Z,62.40
2023-01-18T07:28:23.500Z,61.18
2023-01-18T07:29:23.534Z,64.44
2023-01-18T07:30:23.487Z,65.19
2023-01-18T07:31:23.482Z,59.86
2023-01-18T07:32:23.478Z,63.01
2023-01-18T07:33:23.461Z,62.58
2023-01-18T07:34:23.474Z,64.20
2023-01-18T07:35:24.470Z,61.76
2023-01-18T07:36:23.448Z,63.86
2023-01-18T07:37:23.448Z,66.27
2023-01-18T07:38:23.436Z,62.21
2023-01-18T07:39:23.451Z,62.60
2023-01-18T07:40:23.444Z,67.52
2023-01-18T07:41:23.420Z,64.66
2023-01-18T07:42:23.413Z,64.91
2023-01-18T07:43:23.400Z,64.35
2023-01-18T07:44:23.413Z,62.95
2023-01-18T07:45:23.386Z,68.77
2023-01-18T07:46:23.403Z,60.92
2023-01-18T07:47:23.433Z,61.82
2023-01-18T07:48:23.365Z,63.73
2023-01-18T07:49:23.377Z,64.22
2023-01-18T07:50:23.350Z,62.49
2023-01-18T07:51:23.340Z,63.17
2023-01-18T07:52:23.350Z,63.90
2023-01-18T07:53:23.327Z,60.06
2023-01-18T07:54:23.351Z,60.94
2023-01-18T07:55:23.310Z,62.13
2023-01-18T07:56:23.301Z,64.09
2023-01-18T07:57:23.297Z,60.69
2023-01-18T07:58:23.290Z,64.06
2023-01-18T07:59:23.302Z,64.16
2023-01-18T08:00:23.282Z,64.90
2023-01-18T08:01:23.419Z,64.24
2023-01-18T08:02:23.306Z,62.70
2023-01-18T08:03:23.257Z,64.16
2023-01-18T08:04:23.274Z,61.81
2023-01-18T08:05:23.235Z,63.19
2023-01-18T08:06:23.231Z,60.68
2023-01-18T08:07:23.221Z,65.00
2023-01-18T08:08:23.221Z,63.45
2023-01-18T08:09:23.237Z,65.04
2023-01-18T08:10:23.212Z,60.75
2023-01-18T08:11:23.187Z,64.36
2023-01-18T08:12:23.185Z,66.17
2023-01-18T08:13:23.176Z,61.34
2023-01-18T08:14:23.171Z,63.85
2023-01-18T08:15:23.193Z,60.47
2023-01-18T08:16:23.156Z,65.21
2023-01-18T08:17:23.149Z,60.85
2023-01-18T08:18:23.141Z,66.79
2023-01-18T08:19:23.136Z,63.02
2023-01-18T08:20:23.153Z,60.48
2023-01-18T08:21:23.116Z,60.29
2023-01-18T08:22:23.113Z,66.74
2023-01-18T08:23:23.103Z,65.14
2023-01-18T08:24:23.102Z,64.98
2023-01-18T08:25:23.111Z,65.36
2023-01-18T08:26:23.079Z,62.46
2023-01-18T08:27:23.068Z,64.62
2023-01-18T08:28:23.061Z,61.32
2023-01-18T08:29:23.052Z,64.22
2023-01-18T08:30:23.070Z,62.62
2023-01-18T08:31:23.063Z,63.78
2023-01-18T08:32:23.093Z,64.67
2023-01-18T08:33:23.026Z,66.09
2023-01-18T08:34:23.048Z,64.44
2023-01-18T08:35:23.836Z,62.97
2023-01-18T08:36:23.996Z,65.57
2023-01-18T08:37:22.993Z,64.18
2023-01-18T08:38:22.984Z,63.60
2023-01-18T08:39:22.985Z,65.08
2023-01-18T08:40:22.997Z,62.35
2023-01-18T08:41:22.961Z,65.63
2023-01-18T08:42:22.957Z,63.27
2023-01-18T08:43:22.945Z,61.46
2023-01-18T08:44:22.945Z,67.32
2023-01-18T08:45:22.958Z,63.69
2023-01-18T08:46:22.977Z,63.17
2023-01-18T08:47:22.933Z,60.78
2023-01-18T08:48:22.928Z,60.98
2023-01-18T08:49:22.918Z,67.38
2023-01-18T08:50:22.927Z,63.26
2023-01-18T08:51:23.074Z,61.21
2023-01-18T08:52:22.886Z,59.85
2023-01-18T08:53:22.875Z,62.81
2023-01-18T08:54:22.869Z,63.01
2023-01-18T08:55:22.889Z,62.52
2023-01-18T08:56:22.863Z,63.83
2023-01-18T08:57:22.848Z,60.03
2023-01-18T08:58:22.844Z,63.08
2023-01-18T08:59:22.896Z,61.90
2023-01-18T09:00:22.848Z,61.96
2023-01-18T09:01:22.911Z,63.08
2023-01-18T09:02:22.846Z,62.47
2023-01-18T09:03:22.807Z,63.92
2023-01-18T09:04:22.811Z,62.93
2023-01-18T09:05:22.822Z,62.69
2023-01-18T09:06:22.790Z,57.75
2023-01-18T09:07:22.777Z,64.86
2023-01-18T09:08:22.781Z,58.98
2023-01-18T09:09:22.776Z,63.93
2023-01-18T09:10:22.794Z,64.61
2023-01-18T09:11:22.745Z,60.06
2023-01-18T09:12:22.732Z,64.13
2023-01-18T09:13:22.752Z,57.02
2023-01-18T09:14:22.722Z,63.42
2023-01-18T09:15:22.738Z,61.10
2023-01-18T09:16:22.747Z,62.78
2023-01-18T09:17:22.697Z,60.20
2023-01-18T09:18:22.692Z,65.92
2023-01-18T09:19:22.697Z,64.63
2023-01-18T09:20:22.700Z,62.03
2023-01-18T09:21:22.675Z,62.00
2023-01-18T09:22:22.659Z,64.49
2023-01-18T09:23:22.647Z,61.88
2023-01-18T09:24:22.647Z,64.45
2023-01-18T09:25:22.668Z,59.19
2023-01-18T09:26:22.623Z,63.22
2023-01-18T09:27:22.626Z,63.51
2023-01-18T09:28:22.626Z,64.37
2023-01-18T09:29:22.610Z,64.67
2023-01-18T09:30:22.636Z,62.94
2023-01-18T09:31:22.706Z,61.47
2023-01-18T09:32:22.611Z,59.95
2023-01-18T09:33:22.575Z,62.71
2023-01-18T09:34:22.564Z,62.22
2023-01-18T09:35:22.583Z,63.03
2023-01-18T09:36:22.546Z,64.49
2023-01-18T09:37:22.571Z,57.88
2023-01-18T09:38:22.536Z,64.75
2023-01-18T09:39:22.542Z,62.90
2023-01-18T09:40:22.540Z,62.83
2023-01-18T09:41:22.513Z,61.13
2023-01-18T09:42:22.511Z,61.43
2023-01-18T09:43:22.503Z,59.67
2023-01-18T09:44:22.484Z,65.15
2023-01-18T09:45:22.512Z,61.87
2023-01-18T09:46:22.614Z,63.05
2023-01-18T09:47:22.469Z,66.02
2023-01-18T09:48:22.458Z,64.94
2023-01-18T09:49:22.463Z,63.15
2023-01-18T09:50:22.470Z,63.45
2023-01-18T09:51:22.452Z,60.12
2023-01-18T09:52:22.433Z,62.32
2023-01-18T09:53:22.423Z,60.15
2023-01-18T09:54:22.417Z,61.93
2023-01-18T09:55:22.435Z,63.60
2023-01-18T09:56:22.404Z,59.60
2023-01-18T09:57:22.404Z,62.54
2023-01-18T09:58:22.384Z,60.62
2023-01-18T09:59:22.386Z,63.31
2023-01-18T10:00:22.398Z,63.49
2023-01-18T10:01:22.485Z,61.93
2023-01-18T10:02:22.866Z,59.66
2023-01-18T10:03:22.363Z,57.60
2023-01-18T10:04:22.342Z,61.29
2023-01-18T10:05:22.369Z,64.89
2023-01-18T10:06:22.331Z,63.28
2023-01-18T10:07:22.318Z,62.89
2023-01-18T10:08:22.313Z,67.73
2023-01-18T10:09:22.313Z,63.67
2023-01-18T10:10:22.296Z,63.03
2023-01-18T10:11:22.329Z,65.56
2023-01-18T10:12:22.282Z,67.08
2023-01-18T10:13:22.283Z,63.41
2023-01-18T10:14:22.264Z,62.23
2023-01-18T10:15:22.321Z,60.70
2023-01-18T10:16:22.306Z,68.23
2023-01-18T10:17:22.246Z,61.38
2023-01-18T10:18:22.238Z,60.87
2023-01-18T10:19:22.230Z,63.83
2023-01-18T10:20:22.226Z,65.00
2023-01-18T10:21:22.246Z,65.38
2023-01-18T10:22:22.208Z,64.17
2023-01-18T10:23:22.202Z,59.55
2023-01-18T10:24:22.193Z,65.88
2023-01-18T10:25:22.219Z,64.38
2023-01-18T10:26:22.200Z,62.89
2023-01-18T10:27:22.168Z,63.46
2023-01-18T10:28:22.159Z,61.34
2023-01-18T10:29:22.150Z,64.18
2023-01-18T10:30:22.155Z,61.18
2023-01-18T10:31:22.213Z,61.92
2023-01-18T10:32:22.135Z,62.59
2023-01-18T10:33:22.131Z,62.21
2023-01-18T10:34:22.117Z,62.59
2023-01-18T10:35:22.106Z,61.14
2023-01-18T10:36:22.123Z,59.89
2023-01-18T10:37:22.098Z,64.04
2023-01-18T10:38:22.101Z,58.97
2023-01-18T10:39:22.078Z,61.01
2023-01-18T10:40:22.087Z,63.58
2023-01-18T10:41:22.103Z,61.16
2023-01-18T10:42:22.084Z,63.84
2023-01-18T10:43:22.054Z,58.18
2023-01-18T10:44:22.051Z,60.82
2023-01-18T10:45:22.259Z,63.34
2023-01-18T10:46:22.044Z,64.77
2023-01-18T10:47:22.027Z,62.77
2023-01-18T10:48:22.032Z,68.08
2023-01-18T10:49:22.004Z,61.82
2023-01-18T10:50:22.175Z,61.72
2023-01-18T10:51:22.009Z,63.97
2023-01-18T10:52:21.970Z,59.85
2023-01-18T10:53:21.970Z,63.59
2023-01-18T10:54:21.955Z,67.67
2023-01-18T10:55:21.953Z,63.90
2023-01-18T10:56:21.969Z,63.87
2023-01-18T10:57:21.932Z,63.16
2023-01-18T10:58:21.927Z,64.03
2023-01-18T10:59:22.010Z,64.67
2023-01-18T11:00:22.009Z,62.66
2023-01-18T11:01:21.975Z,58.49
2023-01-18T11:02:22.018Z,63.31
2023-01-18T11:03:21.889Z,62.99
2023-01-18T11:04:21.887Z,60.94
2023-01-18T11:05:21.870Z,59.75
2023-01-18T11:06:21.865Z,65.16
2023-01-18T11:07:21.885Z,63.35
2023-01-18T11:08:21.865Z,63.31
2023-01-18T11:09:21.837Z,65.87
2023-01-18T11:10:21.828Z,63.30
2023-01-18T11:11:21.824Z,63.99
2023-01-18T11:12:21.846Z,62.62
2023-01-18T11:13:21.810Z,65.56
2023-01-18T11:14:21.803Z,64.69
2023-01-18T11:15:21.797Z,64.92
2023-01-18T11:16:21.804Z,64.63
2023-01-18T11:17:21.813Z,61.26
2023-01-18T11:18:21.772Z,62.40
2023-01-18T11:19:21.767Z,66.14
2023-01-18T11:20:21.764Z,60.84
2023-01-18T11:21:21.755Z,62.66
2023-01-18T11:22:21.768Z,61.97
2023-01-18T11:23:21.730Z,63.60
2023-01-18T11:24:21.728Z,62.04
2023-01-18T11:25:21.725Z,62.55
2023-01-18T11:26:21.714Z,58.54
2023-01-18T11:27:21.736Z,61.86
2023-01-18T11:28:21.702Z,60.68
2023-01-18T11:29:21.699Z,59.50
2023-01-18T11:30:21.684Z,61.69
2023-01-18T11:31:22.301Z,61.19
2023-01-18T11:32:22.698Z,60.92
2023-01-18T11:33:21.663Z,60.45
2023-01-18T11:34:21.658Z,63.70
2023-01-18T11:35:21.647Z,62.49
2023-01-18T11:36:21.656Z,60.14
2023-01-18T11:37:21.658Z,61.22
2023-01-18T11:38:21.639Z,57.75
2023-01-18T11:39:21.622Z,63.55
2023-01-18T11:40:21.610Z,62.43
2023-01-18T11:41:21.609Z,61.48
2023-01-18T11:42:21.630Z,61.84
2023-01-18T11:43:21.614Z,63.37
2023-01-18T11:44:21.587Z,64.63
2023-01-18T11:45:22.573Z,61.68
2023-01-18T11:46:21.572Z,59.56
2023-01-18T11:47:21.696Z,61.34
2023-01-18T11:48:21.589Z,61.54
2023-01-18T11:49:21.562Z,62.02
2023-01-18T11:50:22.687Z,62.74
2023-01-18T11:51:22.533Z,63.71
2023-01-18T11:52:21.529Z,63.58
2023-01-18T11:53:21.550Z,64.06
2023-01-18T11:54:21.512Z,62.13
2023-01-18T11:55:21.504Z,63.03
2023-01-18T11:56:21.512Z,64.46
2023-01-18T11:57:21.499Z,59.20
2023-01-18T11:58:21.512Z,63.57
2023-01-18T11:59:21.477Z,59.99
2023-01-18T12:00:21.468Z,62.95
2023-01-18T12:01:21.604Z,64.21
2023-01-18T12:02:21.484Z,61.52
2023-01-18T12:03:21.526Z,57.85
2023-01-18T12:04:21.437Z,65.03
2023-01-18T12:05:21.430Z,64.46
2023-01-18T12:06:21.424Z,61.06
2023-01-18T12:07:21.429Z,60.71
2023-01-18T12:08:21.433Z,58.41
2023-01-18T12:09:21.411Z,60.67
2023-01-18T12:10:21.403Z,61.95
2023-01-18T12:11:21.383Z,61.51
2023-01-18T12:12:21.393Z,61.91
2023-01-18T12:13:21.403Z,59.93
2023-01-18T12:14:21.390Z,61.10
2023-01-18T12:15:21.356Z,61.51
2023-01-18T12:16:21.391Z,62.08
2023-01-18T12:17:21.352Z,60.56
2023-01-18T12:18:21.368Z,60.36
2023-01-18T12:19:21.326Z,62.87
2023-01-18T12:20:21.324Z,59.29
2023-01-18T12:21:21.321Z,70.90
2023-01-18T12:22:21.329Z,62.10
2023-01-18T12:23:21.330Z,59.20
2023-01-18T12:24:22.287Z,60.87
2023-01-18T12:25:21.280Z,59.05
2023-01-18T12:26:21.275Z,62.18
2023-01-18T12:27:21.263Z,60.24
2023-01-18T12:28:21.275Z,58.12
2023-01-18T12:29:22.261Z,60.51
2023-01-18T12:30:21.250Z,55.96
2023-01-18T12:31:21.231Z,62.60
2023-01-18T12:32:21.223Z,57.83
2023-01-18T12:33:31.249Z,61.57
2023-01-18T12:34:23.284Z,73.91
2023-01-18T12:35:24.640Z,63.00
2023-01-18T12:36:22.197Z,58.54
2023-01-18T12:37:21.196Z,60.92
2023-01-18T12:38:21.218Z,59.40
2023-01-18T12:39:21.174Z,60.76
2023-01-18T12:40:21.167Z,59.22
2023-01-18T12:41:21.157Z,59.29
2023-01-18T12:42:21.149Z,57.70
2023-01-18T12:43:21.172Z,61.21
2023-01-18T12:44:21.130Z,55.23
2023-01-18T12:45:21.123Z,59.48
2023-01-18T12:46:21.154Z,57.27
2023-01-18T12:47:21.103Z,61.12
2023-01-18T12:48:21.165Z,60.42
2023-01-18T12:49:21.115Z,55.80
2023-01-18T12:50:23.101Z,57.87
2023-01-18T12:51:22.072Z,61.03
2023-01-18T12:52:21.089Z,60.40